Gunnison, CO

18:15 MDT le 22 septembre 2014 (GMT -0600)
Gunnison County | Change Station
CLOSE
Current Station
Aéroport
Location: Gunnison,
Altitude: 7674 ft
Stations météo à proximité

Alt. 7674 ft 38.53 °N, 106.93 °W | Updated 20 minutes ago

Nuageux
Nuageux
68 ° F
Paraît 68 ° F
N
12
Vent Variable Vent de ONO
Gusts 20 mph

Aujourd'hui
Haut(e) -- | Bas -- ° F
--% Risque de précip.
Hier
Haut(e) -- | Bas -- ° F
Precip. -- pouce
6:55 AM 7:04 PM
Lune descendante, 1% visible
Pression 30.31 pouce
Visibilité 10.0 Miles terrestres
Nuages Nuages épars 6500 ft
Couvert 10000 ft
Point de rosée 43 ° F
Humidité 40%
Précipitations 0.70 pouce
Profondeur de la couche neigeuse 0 in , 0 in , 0 in
UV 0 sur 12
Pollen 4.70 sur 12
Qualité de l'air Non disponible.
Flu Activity Non disponible.
METAR KGUC 222355Z AUTO 29010G17KT 10SM SCT065 OVC100 20/06 A3031 RMK AO1 60002 10210 20140 402100120 57014

More Conditions Fewer Conditions

Pression 30.31 pouce
Visibilité 10.0 Miles terrestres
Nuages Nuages épars 6500 ft
Couvert 10000 ft
Point de rosée 43 ° F
Humidité 40%
Précipitations 0.70 pouce
Profondeur de la couche neigeuse 0 in , 0 in , 0 in
UV 0 sur 12
Pollen 4.70 sur 12
Qualité de l'air Non disponible.
Flu Activity Non disponible.
METAR KGUC 222355Z AUTO 29010G17KT 10SM SCT065 OVC100 20/06 A3031 RMK AO1 60002 10210 20140 402100120 57014

More Conditions Fewer Conditions

10-Day Weather Forecast

Almanac

Astronomie

Sep. 22, 2014 Lever Coucher
Temps réel 06:55 MDT 19:04 MDT
Crépuscule civil 06:29 MDT 19:31 MDT
Crépuscule nautique 05:58 MDT 20:01 MDT
Crépuscule astronomique 05:26 MDT 20:33 MDT
Lune 05:27 MDT (9/22) 18:13 MDT (9/22)
Durée de lumière visible 13h 02m
Longueur du jour
12h 09m
Tomorrow will be 2m 29s shorter.
Lune descendante, 1% of the Moon is Illuminated
Aujourd'hui
Lune descendante
Sep 24
Nouveau
Oct 1
Premier quartier
Oct 8
Pleine lune
Oct 15
Dernier quartier

Extrêmes aujourd'hui

State Highs State Lows

Community

WunderPhotos

Upload Photos

1,755,562 Photos téléchargées !

Nearby

Épaisseur de neige

Station Depth Altitude
Roach 0 in 9700 ft
Joe Wright 0 in 10120 ft
Columbus Basin 0 in 10785 ft
Vail Mountain 86 in 10300 ft
Phantom Valley 0 in 9030 ft

Activité sismique

Ville Distance Mag. Time & Date
No recent earthquake activity has been reported nearby.
Minimum magnitude displayed is 2.5.

Températures des eaux côtières

Lieu Température
Aucun rapport de station

Stations météo à proximité